sensor_id;sensor_type;location;lat;lon;timestamp;pressure;altitude;pressure_sealevel;temperature;humidity
29215;BME280;16252;49.816;7.964;2023-11-22T00:01:59;100730.09;;;9.54;65.20
29215;BME280;16252;49.816;7.964;2023-11-22T00:04:24;100705.44;;;9.35;65.48
29215;BME280;16252;49.816;7.964;2023-11-22T00:06:50;100731.56;;;9.44;65.33
29215;BME280;16252;49.816;7.964;2023-11-22T00:09:15;100732.03;;;9.37;65.33
29215;BME280;16252;49.816;7.964;2023-11-22T00:11:40;100730.50;;;9.32;65.80
29215;BME280;16252;49.816;7.964;2023-11-22T00:14:06;100753.31;;;9.38;65.82
29215;BME280;16252;49.816;7.964;2023-11-22T00:16:31;100733.06;;;9.34;65.69
29215;BME280;16252;49.816;7.964;2023-11-22T00:18:57;100752.53;;;9.36;65.95
29215;BME280;16252;49.816;7.964;2023-11-22T00:21:22;100731.03;;;9.23;66.00
29215;BME280;16252;49.816;7.964;2023-11-22T00:23:48;100754.63;;;9.31;65.70
29215;BME280;16252;49.816;7.964;2023-11-22T00:26:13;100738.47;;;9.18;65.19
29215;BME280;16252;49.816;7.964;2023-11-22T00:28:38;100726.78;;;9.05;64.89
29215;BME280;16252;49.816;7.964;2023-11-22T00:31:03;100747.69;;;9.13;64.69
29215;BME280;16252;49.816;7.964;2023-11-22T00:33:29;100761.66;;;9.18;64.61
29215;BME280;16252;49.816;7.964;2023-11-22T00:35:56;100749.00;;;9.05;64.14
29215;BME280;16252;49.816;7.964;2023-11-22T00:38:23;100774.41;;;9.13;64.41
29215;BME280;16252;49.816;7.964;2023-11-22T00:40:48;100748.59;;;8.97;64.44
29215;BME280;16252;49.816;7.964;2023-11-22T00:43:15;100759.00;;;9.02;64.17
29215;BME280;16252;49.816;7.964;2023-11-22T00:45:40;100773.03;;;9.05;64.20
29215;BME280;16252;49.816;7.964;2023-11-22T00:48:05;100719.78;;;8.72;64.43
29215;BME280;16252;49.816;7.964;2023-11-22T00:50:31;100742.75;;;8.90;64.46
29215;BME280;16252;49.816;7.964;2023-11-22T00:52:56;100717.03;;;8.74;64.79
29215;BME280;16252;49.816;7.964;2023-11-22T00:55:21;100725.97;;;8.73;64.47
29215;BME280;16252;49.816;7.964;2023-11-22T00:57:46;100746.69;;;8.83;65.14
29215;BME280;16252;49.816;7.964;2023-11-22T01:00:12;100749.47;;;8.82;64.95
29215;BME280;16252;49.816;7.964;2023-11-22T01:02:38;100759.00;;;8.86;64.95
29215;BME280;16252;49.816;7.964;2023-11-22T01:05:08;100770.47;;;8.88;65.02
29215;BME280;16252;49.816;7.964;2023-11-22T01:07:37;100742.41;;;8.65;65.13
29215;BME280;16252;49.816;7.964;2023-11-22T01:10:03;100769.44;;;8.75;65.29
29215;BME280;16252;49.816;7.964;2023-11-22T01:12:28;100740.53;;;8.51;64.97
29215;BME280;16252;49.816;7.964;2023-11-22T01:14:53;100763.41;;;8.55;65.38
29215;BME280;16252;49.816;7.964;2023-11-22T01:17:19;100759.53;;;8.45;65.23
29215;BME280;16252;49.816;7.964;2023-11-22T01:19:44;100756.19;;;8.41;65.40
29215;BME280;16252;49.816;7.964;2023-11-22T01:22:09;100748.03;;;8.27;65.27
29215;BME280;16252;49.816;7.964;2023-11-22T01:24:34;100734.34;;;8.17;65.78
29215;BME280;16252;49.816;7.964;2023-11-22T01:27:02;100776.66;;;8.41;65.43
29215;BME280;16252;49.816;7.964;2023-11-22T01:29:27;100748.28;;;8.22;65.65
29215;BME280;16252;49.816;7.964;2023-11-22T01:31:54;100754.75;;;8.18;65.43
29215;BME280;16252;49.816;7.964;2023-11-22T01:34:20;100769.00;;;8.17;65.43
29215;BME280;16252;49.816;7.964;2023-11-22T01:36:45;100799.66;;;8.26;65.50
29215;BME280;16252;49.816;7.964;2023-11-22T01:39:11;100814.69;;;8.27;65.42
29215;BME280;16252;49.816;7.964;2023-11-22T01:41:40;100809.00;;;8.17;65.35
29215;BME280;16252;49.816;7.964;2023-11-22T01:44:07;100793.75;;;8.03;65.28
29215;BME280;16252;49.816;7.964;2023-11-22T01:46:33;100804.41;;;8.03;65.35
29215;BME280;16252;49.816;7.964;2023-11-22T01:48:59;100815.88;;;8.06;65.43
29215;BME280;16252;49.816;7.964;2023-11-22T01:51:25;100812.19;;;7.91;65.21
29215;BME280;16252;49.816;7.964;2023-11-22T01:53:54;100797.31;;;7.87;65.51
29215;BME280;16252;49.816;7.964;2023-11-22T01:56:22;100778.75;;;7.68;65.38
29215;BME280;16252;49.816;7.964;2023-11-22T01:58:49;100829.72;;;7.95;65.47
29215;BME280;16252;49.816;7.964;2023-11-22T02:01:15;100812.59;;;7.83;65.34
29215;BME280;16252;49.816;7.964;2023-11-22T02:03:41;100816.34;;;7.79;65.64
29215;BME280;16252;49.816;7.964;2023-11-22T02:06:07;100812.38;;;7.70;65.52
29215;BME280;16252;49.816;7.964;2023-11-22T02:08:35;100778.84;;;7.49;65.91
29215;BME280;16252;49.816;7.964;2023-11-22T02:11:00;100831.47;;;7.78;65.70
29215;BME280;16252;49.816;7.964;2023-11-22T02:13:28;100817.19;;;7.62;65.45
29215;BME280;16252;49.816;7.964;2023-11-22T02:15:55;100830.00;;;7.73;65.87
29215;BME280;16252;49.816;7.964;2023-11-22T02:18:22;100831.03;;;7.70;66.06
29215;BME280;16252;49.816;7.964;2023-11-22T02:20:48;100830.41;;;7.65;65.79
29215;BME280;16252;49.816;7.964;2023-11-22T02:23:14;100838.22;;;7.68;65.57
29215;BME280;16252;49.816;7.964;2023-11-22T02:25:39;100848.47;;;7.76;65.69
29215;BME280;16252;49.816;7.964;2023-11-22T02:28:04;100853.97;;;7.73;65.65
29215;BME280;16252;49.816;7.964;2023-11-22T02:30:30;100854.19;;;7.68;65.56
29215;BME280;16252;49.816;7.964;2023-11-22T02:32:55;100819.41;;;7.54;65.71
29215;BME280;16252;49.816;7.964;2023-11-22T02:35:20;100875.69;;;7.82;65.76
29215;BME280;16252;49.816;7.964;2023-11-22T02:37:46;100880.75;;;7.87;65.65
29215;BME280;16252;49.816;7.964;2023-11-22T02:42:43;100854.75;;;7.75;65.40
29215;BME280;16252;49.816;7.964;2023-11-22T02:45:08;100852.72;;;7.80;65.66
29215;BME280;16252;49.816;7.964;2023-11-22T02:47:34;100857.50;;;7.91;65.91
29215;BME280;16252;49.816;7.964;2023-11-22T02:50:00;100837.59;;;7.80;65.72
29215;BME280;16252;49.816;7.964;2023-11-22T02:52:26;100855.63;;;7.93;65.68
29215;BME280;16252;49.816;7.964;2023-11-22T02:54:51;100847.47;;;7.96;65.94
29215;BME280;16252;49.816;7.964;2023-11-22T02:57:17;100836.34;;;7.88;65.53
29215;BME280;16252;49.816;7.964;2023-11-22T02:59:43;100842.13;;;7.96;65.57
29215;BME280;16252;49.816;7.964;2023-11-22T03:02:08;100850.19;;;7.94;65.44
29215;BME280;16252;49.816;7.964;2023-11-22T03:04:34;100837.19;;;7.88;65.11
29215;BME280;16252;49.816;7.964;2023-11-22T03:06:59;100878.94;;;8.05;65.11
29215;BME280;16252;49.816;7.964;2023-11-22T03:09:25;100849.41;;;7.92;64.87
29215;BME280;16252;49.816;7.964;2023-11-22T03:11:52;100841.03;;;7.82;65.01
29215;BME280;16252;49.816;7.964;2023-11-22T03:14:17;100837.81;;;7.76;64.97
29215;BME280;16252;49.816;7.964;2023-11-22T03:16:43;100866.41;;;7.90;64.79
29215;BME280;16252;49.816;7.964;2023-11-22T03:19:08;100853.81;;;7.76;64.81
29215;BME280;16252;49.816;7.964;2023-11-22T03:21:35;100890.25;;;7.93;65.18
29215;BME280;16252;49.816;7.964;2023-11-22T03:24:01;100904.97;;;8.00;64.98
29215;BME280;16252;49.816;7.964;2023-11-22T03:26:29;100890.31;;;7.91;64.67
29215;BME280;16252;49.816;7.964;2023-11-22T03:28:54;100882.56;;;7.87;64.37
29215;BME280;16252;49.816;7.964;2023-11-22T03:31:20;100884.53;;;7.83;64.57
29215;BME280;16252;49.816;7.964;2023-11-22T03:33:45;100898.56;;;7.87;64.44
29215;BME280;16252;49.816;7.964;2023-11-22T03:36:10;100901.16;;;7.88;64.21
29215;BME280;16252;49.816;7.964;2023-11-22T03:41:04;100896.28;;;7.79;63.84
29215;BME280;16252;49.816;7.964;2023-11-22T03:43:30;100908.75;;;7.78;64.04
29215;BME280;16252;49.816;7.964;2023-11-22T03:45:55;100886.63;;;7.59;63.75
29215;BME280;16252;49.816;7.964;2023-11-22T03:48:20;100918.94;;;7.70;64.02
29215;BME280;16252;49.816;7.964;2023-11-22T03:50:47;100935.75;;;7.71;63.91
29215;BME280;16252;49.816;7.964;2023-11-22T03:53:13;100897.16;;;7.43;64.03
29215;BME280;16252;49.816;7.964;2023-11-22T03:55:38;100922.56;;;7.50;63.90
29215;BME280;16252;49.816;7.964;2023-11-22T03:58:04;100922.00;;;7.44;63.96
29215;BME280;16252;49.816;7.964;2023-11-22T04:00:29;100905.06;;;7.27;64.04
29215;BME280;16252;49.816;7.964;2023-11-22T04:02:55;100905.25;;;7.23;64.09
29215;BME280;16252;49.816;7.964;2023-11-22T04:05:22;100932.31;;;7.32;63.98
29215;BME280;16252;49.816;7.964;2023-11-22T04:07:47;100942.16;;;7.30;64.01
29215;BME280;16252;49.816;7.964;2023-11-22T04:10:12;100933.59;;;7.24;64.17
29215;BME280;16252;49.816;7.964;2023-11-22T04:12:38;100962.41;;;7.34;63.93
29215;BME280;16252;49.816;7.964;2023-11-22T04:15:04;100935.53;;;7.01;64.19
29215;BME280;16252;49.816;7.964;2023-11-22T04:17:33;100963.19;;;7.18;64.08
29215;BME280;16252;49.816;7.964;2023-11-22T04:19:59;100957.56;;;7.05;64.01
29215;BME280;16252;49.816;7.964;2023-11-22T04:22:24;100952.31;;;7.03;64.24
29215;BME280;16252;49.816;7.964;2023-11-22T04:24:49;100961.72;;;7.10;64.32
29215;BME280;16252;49.816;7.964;2023-11-22T04:27:14;100940.22;;;6.96;64.07
29215;BME280;16252;49.816;7.964;2023-11-22T04:29:40;100964.75;;;7.03;64.14
29215;BME280;16252;49.816;7.964;2023-11-22T04:32:05;100972.72;;;7.03;64.13
29215;BME280;16252;49.816;7.964;2023-11-22T04:34:30;100963.41;;;6.94;64.38
29215;BME280;16252;49.816;7.964;2023-11-22T04:36:56;100967.16;;;6.88;64.09
29215;BME280;16252;49.816;7.964;2023-11-22T04:39:21;100970.72;;;6.89;64.23
29215;BME280;16252;49.816;7.964;2023-11-22T04:41:46;100968.13;;;6.87;64.76
29215;BME280;16252;49.816;7.964;2023-11-22T04:44:12;100964.28;;;6.74;64.44
29215;BME280;16252;49.816;7.964;2023-11-22T04:46:37;100935.84;;;6.56;64.74
29215;BME280;16252;49.816;7.964;2023-11-22T04:49:02;100977.75;;;6.71;64.31
29215;BME280;16252;49.816;7.964;2023-11-22T04:51:28;101004.00;;;6.79;64.47
29215;BME280;16252;49.816;7.964;2023-11-22T04:53:54;101012.69;;;6.82;64.14
29215;BME280;16252;49.816;7.964;2023-11-22T04:56:20;100994.00;;;6.63;64.15
29215;BME280;16252;49.816;7.964;2023-11-22T04:58:45;101008.06;;;6.67;64.43
29215;BME280;16252;49.816;7.964;2023-11-22T05:01:10;101010.97;;;6.61;64.50
29215;BME280;16252;49.816;7.964;2023-11-22T05:03:36;101003.97;;;6.58;64.22
29215;BME280;16252;49.816;7.964;2023-11-22T05:06:03;100961.88;;;6.28;64.42
29215;BME280;16252;49.816;7.964;2023-11-22T05:08:28;101022.53;;;6.60;64.55
29215;BME280;16252;49.816;7.964;2023-11-22T05:10:53;100983.03;;;6.30;64.36
29215;BME280;16252;49.816;7.964;2023-11-22T05:13:19;100995.94;;;6.39;64.38
29215;BME280;16252;49.816;7.964;2023-11-22T05:15:44;101004.59;;;6.44;64.15
29215;BME280;16252;49.816;7.964;2023-11-22T05:18:10;101014.38;;;6.44;64.13
29215;BME280;16252;49.816;7.964;2023-11-22T05:20:35;100983.28;;;6.25;64.09
29215;BME280;16252;49.816;7.964;2023-11-22T05:23:00;101013.72;;;6.39;64.18
29215;BME280;16252;49.816;7.964;2023-11-22T05:25:26;101016.50;;;6.36;64.22
29215;BME280;16252;49.816;7.964;2023-11-22T05:27:51;101042.53;;;6.48;64.08
29215;BME280;16252;49.816;7.964;2023-11-22T05:30:17;100995.00;;;6.20;64.11
29215;BME280;16252;49.816;7.964;2023-11-22T05:32:42;101017.75;;;6.27;64.23
29215;BME280;16252;49.816;7.964;2023-11-22T05:35:07;101011.09;;;6.17;63.98
29215;BME280;16252;49.816;7.964;2023-11-22T05:37:35;101008.88;;;6.06;63.92
29215;BME280;16252;49.816;7.964;2023-11-22T05:40:02;101022.66;;;6.16;64.09
29215;BME280;16252;49.816;7.964;2023-11-22T05:42:28;101034.94;;;6.18;64.32
29215;BME280;16252;49.816;7.964;2023-11-22T05:44:53;101016.19;;;6.01;64.38
29215;BME280;16252;49.816;7.964;2023-11-22T05:47:19;101029.19;;;6.07;64.41
29215;BME280;16252;49.816;7.964;2023-11-22T05:49:44;101039.63;;;6.12;63.89
29215;BME280;16252;49.816;7.964;2023-11-22T05:52:09;101040.75;;;6.06;64.08
29215;BME280;16252;49.816;7.964;2023-11-22T05:54:34;101030.44;;;5.98;64.18
29215;BME280;16252;49.816;7.964;2023-11-22T05:57:00;100997.91;;;5.70;64.23
29215;BME280;16252;49.816;7.964;2023-11-22T05:59:25;101029.91;;;5.89;64.32
29215;BME280;16252;49.816;7.964;2023-11-22T06:01:50;101038.69;;;5.91;64.49
29215;BME280;16252;49.816;7.964;2023-11-22T06:04:16;101055.44;;;5.93;64.34
29215;BME280;16252;49.816;7.964;2023-11-22T06:06:41;101060.00;;;5.89;64.70
29215;BME280;16252;49.816;7.964;2023-11-22T06:09:07;101054.00;;;5.84;64.57
29215;BME280;16252;49.816;7.964;2023-11-22T06:11:33;101060.19;;;5.84;64.51
29215;BME280;16252;49.816;7.964;2023-11-22T06:13:59;101095.06;;;5.99;64.40
29215;BME280;16252;49.816;7.964;2023-11-22T06:16:24;101069.13;;;5.82;64.42
29215;BME280;16252;49.816;7.964;2023-11-22T06:18:49;101072.72;;;5.81;64.38
29215;BME280;16252;49.816;7.964;2023-11-22T06:21:15;101048.63;;;5.63;64.36
29215;BME280;16252;49.816;7.964;2023-11-22T06:23:40;101060.88;;;5.68;64.36
29215;BME280;16252;49.816;7.964;2023-11-22T06:26:05;101060.09;;;5.64;64.21
29215;BME280;16252;49.816;7.964;2023-11-22T06:28:31;101116.78;;;5.86;64.35
29215;BME280;16252;49.816;7.964;2023-11-22T06:30:57;101104.09;;;5.71;64.30
29215;BME280;16252;49.816;7.964;2023-11-22T06:33:22;101094.44;;;5.69;64.45
29215;BME280;16252;49.816;7.964;2023-11-22T06:35:47;101107.56;;;5.73;64.29
29215;BME280;16252;49.816;7.964;2023-11-22T06:38:13;101092.25;;;5.56;64.24
29215;BME280;16252;49.816;7.964;2023-11-22T06:40:38;101123.78;;;5.65;64.18
29215;BME280;16252;49.816;7.964;2023-11-22T06:43:03;101125.09;;;5.54;64.22
29215;BME280;16252;49.816;7.964;2023-11-22T06:45:32;101124.28;;;5.52;64.38
29215;BME280;16252;49.816;7.964;2023-11-22T06:47:57;101123.72;;;5.43;64.52
29215;BME280;16252;49.816;7.964;2023-11-22T06:50:23;101096.84;;;5.29;64.58
29215;BME280;16252;49.816;7.964;2023-11-22T06:52:49;101103.97;;;5.27;64.63
29215;BME280;16252;49.816;7.964;2023-11-22T06:55:15;101096.19;;;5.22;64.45
29215;BME280;16252;49.816;7.964;2023-11-22T06:57:40;101115.22;;;5.34;64.52
29215;BME280;16252;49.816;7.964;2023-11-22T07:00:06;101141.19;;;5.49;64.33
29215;BME280;16252;49.816;7.964;2023-11-22T07:02:32;101137.75;;;5.47;64.56
29215;BME280;16252;49.816;7.964;2023-11-22T07:04:58;101113.53;;;5.31;64.38
29215;BME280;16252;49.816;7.964;2023-11-22T07:07:26;101138.78;;;5.43;64.28
29215;BME280;16252;49.816;7.964;2023-11-22T07:09:51;101157.94;;;5.51;64.26
29215;BME280;16252;49.816;7.964;2023-11-22T07:12:17;101128.69;;;5.29;64.25
29215;BME280;16252;49.816;7.964;2023-11-22T07:14:44;101149.50;;;5.40;64.31
29215;BME280;16252;49.816;7.964;2023-11-22T07:17:09;101145.34;;;5.33;64.21
29215;BME280;16252;49.816;7.964;2023-11-22T07:19:35;101158.28;;;5.42;64.22
29215;BME280;16252;49.816;7.964;2023-11-22T07:22:04;101156.78;;;5.35;64.25
29215;BME280;16252;49.816;7.964;2023-11-22T07:24:30;101159.31;;;5.38;64.17
29215;BME280;16252;49.816;7.964;2023-11-22T07:26:59;101135.88;;;5.26;64.11
29215;BME280;16252;49.816;7.964;2023-11-22T07:29:26;101136.09;;;5.19;64.15
29215;BME280;16252;49.816;7.964;2023-11-22T07:31:51;101156.78;;;5.35;64.05
29215;BME280;16252;49.816;7.964;2023-11-22T07:34:16;101154.16;;;5.33;64.27
29215;BME280;16252;49.816;7.964;2023-11-22T07:36:44;101165.44;;;5.40;64.31
29215;BME280;16252;49.816;7.964;2023-11-22T07:39:09;101152.59;;;5.28;64.16
29215;BME280;16252;49.816;7.964;2023-11-22T07:41:37;101141.13;;;5.27;64.05
29215;BME280;16252;49.816;7.964;2023-11-22T07:44:02;101151.47;;;5.35;64.24
29215;BME280;16252;49.816;7.964;2023-11-22T07:46:27;101042.34;;;4.70;64.07
29215;BME280;16252;49.816;7.964;2023-11-22T07:48:53;101164.06;;;5.53;64.34
29215;BME280;16252;49.816;7.964;2023-11-22T07:51:18;101134.50;;;5.39;64.31
29215;BME280;16252;49.816;7.964;2023-11-22T07:53:43;101162.91;;;5.60;64.23
29215;BME280;16252;49.816;7.964;2023-11-22T07:56:09;101161.00;;;5.64;64.07
29215;BME280;16252;49.816;7.964;2023-11-22T07:58:37;101158.50;;;5.59;64.39
29215;BME280;16252;49.816;7.964;2023-11-22T08:01:02;101145.44;;;5.55;64.40
29215;BME280;16252;49.816;7.964;2023-11-22T08:03:31;101146.16;;;5.58;63.95
29215;BME280;16252;49.816;7.964;2023-11-22T08:05:56;101138.31;;;5.55;63.72
29215;BME280;16252;49.816;7.964;2023-11-22T08:08:22;101122.53;;;5.52;63.45
29215;BME280;16252;49.816;7.964;2023-11-22T08:10:48;101161.59;;;5.72;63.87
29215;BME280;16252;49.816;7.964;2023-11-22T08:13:16;101128.28;;;5.63;63.72
29215;BME280;16252;49.816;7.964;2023-11-22T08:15:44;101159.69;;;5.76;63.75
29215;BME280;16252;49.816;7.964;2023-11-22T08:18:10;101171.00;;;5.81;63.69
29215;BME280;16252;49.816;7.964;2023-11-22T08:20:35;101132.94;;;5.57;63.67
29215;BME280;16252;49.816;7.964;2023-11-22T08:23:01;101168.50;;;5.76;63.73
29215;BME280;16252;49.816;7.964;2023-11-22T08:25:26;101168.59;;;5.75;63.75
29215;BME280;16252;49.816;7.964;2023-11-22T08:27:51;101200.59;;;5.95;63.27
29215;BME280;16252;49.816;7.964;2023-11-22T08:30:17;101187.47;;;5.91;63.43
29215;BME280;16252;49.816;7.964;2023-11-22T08:32:43;101189.25;;;5.90;63.30
29215;BME280;16252;49.816;7.964;2023-11-22T08:35:09;101178.97;;;5.81;62.91
29215;BME280;16252;49.816;7.964;2023-11-22T08:37:39;101195.34;;;5.94;63.31
29215;BME280;16252;49.816;7.964;2023-11-22T08:40:08;101222.69;;;5.72;64.08
29215;BME280;16252;49.816;7.964;2023-11-22T08:42:36;101217.38;;;5.72;63.86
29215;BME280;16252;49.816;7.964;2023-11-22T08:45:02;101216.03;;;5.84;63.01
29215;BME280;16252;49.816;7.964;2023-11-22T08:47:28;101233.13;;;6.25;62.74
29215;BME280;16252;49.816;7.964;2023-11-22T08:49:54;101204.97;;;6.20;62.54
29215;BME280;16252;49.816;7.964;2023-11-22T08:52:20;101207.22;;;6.31;61.75
29215;BME280;16252;49.816;7.964;2023-11-22T08:54:45;101212.22;;;6.38;61.53
29215;BME280;16252;49.816;7.964;2023-11-22T08:57:11;101235.13;;;6.19;61.03
29215;BME280;16252;49.816;7.964;2023-11-22T08:59:37;101229.72;;;6.44;60.83
29215;BME280;16252;49.816;7.964;2023-11-22T09:02:04;101211.16;;;6.42;60.80
29215;BME280;16252;49.816;7.964;2023-11-22T09:04:29;101195.34;;;6.39;60.45
29215;BME280;16252;49.816;7.964;2023-11-22T09:06:56;101219.34;;;6.60;60.31
29215;BME280;16252;49.816;7.964;2023-11-22T09:09:22;101207.75;;;6.61;60.54
29215;BME280;16252;49.816;7.964;2023-11-22T09:11:52;101216.28;;;6.91;60.07
29215;BME280;16252;49.816;7.964;2023-11-22T09:14:17;101165.34;;;6.58;60.84
29215;BME280;16252;49.816;7.964;2023-11-22T09:16:44;101201.56;;;6.82;61.26
29215;BME280;16252;49.816;7.964;2023-11-22T09:19:10;101181.16;;;6.83;60.81
29215;BME280;16252;49.816;7.964;2023-11-22T09:21:36;101184.25;;;6.94;60.95
29215;BME280;16252;49.816;7.964;2023-11-22T09:24:02;101195.28;;;7.05;61.37
29215;BME280;16252;49.816;7.964;2023-11-22T09:26:30;101217.44;;;7.26;60.91
29215;BME280;16252;49.816;7.964;2023-11-22T09:28:56;101218.75;;;7.36;60.60
29215;BME280;16252;49.816;7.964;2023-11-22T09:31:21;101230.75;;;7.47;59.52
29215;BME280;16252;49.816;7.964;2023-11-22T09:33:46;101215.72;;;7.46;59.06
29215;BME280;16252;49.816;7.964;2023-11-22T09:36:12;101224.56;;;7.46;57.97
29215;BME280;16252;49.816;7.964;2023-11-22T09:38:38;101230.03;;;7.43;58.50
29215;BME280;16252;49.816;7.964;2023-11-22T09:41:13;101244.16;;;7.45;56.90
29215;BME280;16252;49.816;7.964;2023-11-22T09:43:43;101095.47;;;6.54;57.93
29215;BME280;16252;49.816;7.964;2023-11-22T09:46:12;101028.00;;;6.14;58.06
29215;BME280;16252;49.816;7.964;2023-11-22T09:48:39;101045.56;;;6.18;57.93
29215;BME280;16252;49.816;7.964;2023-11-22T09:51:21;101205.59;;;7.13;57.22
29215;BME280;16252;49.816;7.964;2023-11-22T09:54:03;101259.38;;;7.42;57.44
29215;BME280;16252;49.816;7.964;2023-11-22T09:56:39;101256.84;;;7.38;58.49
29215;BME280;16252;49.816;7.964;2023-11-22T09:59:06;101256.03;;;7.36;58.90
29215;BME280;16252;49.816;7.964;2023-11-22T10:01:32;101209.88;;;7.17;58.87
29215;BME280;16252;49.816;7.964;2023-11-22T10:04:02;101288.56;;;7.65;58.48
29215;BME280;16252;49.816;7.964;2023-11-22T10:06:30;101238.22;;;7.38;58.16
29215;BME280;16252;49.816;7.964;2023-11-22T10:08:58;101270.16;;;7.59;57.88
29215;BME280;16252;49.816;7.964;2023-11-22T10:11:25;101279.63;;;7.66;57.53
29215;BME280;16252;49.816;7.964;2023-11-22T10:13:50;101212.72;;;7.33;57.22
29215;BME280;16252;49.816;7.964;2023-11-22T10:16:17;101275.91;;;7.70;57.52
29215;BME280;16252;49.816;7.964;2023-11-22T10:18:44;101246.72;;;7.47;57.57
29215;BME280;16252;49.816;7.964;2023-11-22T10:21:23;101267.91;;;7.70;56.67
29215;BME280;16252;49.816;7.964;2023-11-22T10:23:56;101277.63;;;7.71;56.46
29215;BME280;16252;49.816;7.964;2023-11-22T10:26:22;101280.50;;;7.67;56.90
29215;BME280;16252;49.816;7.964;2023-11-22T10:28:52;101275.44;;;7.60;56.55
29215;BME280;16252;49.816;7.964;2023-11-22T10:31:18;101249.63;;;7.42;56.78
29215;BME280;16252;49.816;7.964;2023-11-22T10:33:44;101266.38;;;7.44;56.43
29215;BME280;16252;49.816;7.964;2023-11-22T10:36:10;101262.97;;;7.41;56.57
29215;BME280;16252;49.816;7.964;2023-11-22T10:38:37;101277.09;;;7.43;56.54
29215;BME280;16252;49.816;7.964;2023-11-22T10:41:07;101281.25;;;7.50;56.32
29215;BME280;16252;49.816;7.964;2023-11-22T10:43:34;101270.97;;;7.41;56.67
29215;BME280;16252;49.816;7.964;2023-11-22T10:46:02;101258.25;;;7.27;56.41
29215;BME280;16252;49.816;7.964;2023-11-22T10:48:27;101263.31;;;7.33;57.27
29215;BME280;16252;49.816;7.964;2023-11-22T10:50:57;101224.22;;;7.13;56.97
29215;BME280;16252;49.816;7.964;2023-11-22T10:53:33;101259.28;;;7.45;56.76
29215;BME280;16252;49.816;7.964;2023-11-22T10:56:07;101293.03;;;7.65;56.82
29215;BME280;16252;49.816;7.964;2023-11-22T10:58:40;101293.94;;;7.64;57.15
29215;BME280;16252;49.816;7.964;2023-11-22T11:01:09;101303.41;;;7.71;56.68
29215;BME280;16252;49.816;7.964;2023-11-22T11:03:37;101303.94;;;7.79;56.36
29215;BME280;16252;49.816;7.964;2023-11-22T11:06:05;101311.91;;;7.99;57.06
29215;BME280;16252;49.816;7.964;2023-11-22T11:08:33;101289.03;;;7.75;56.43
29215;BME280;16252;49.816;7.964;2023-11-22T11:11:01;101303.06;;;7.78;56.39
29215;BME280;16252;49.816;7.964;2023-11-22T11:13:29;101237.97;;;7.45;56.44
29215;BME280;16252;49.816;7.964;2023-11-22T11:15:55;101280.50;;;7.67;56.31
29215;BME280;16252;49.816;7.964;2023-11-22T11:18:22;101216.09;;;7.36;56.31
29215;BME280;16252;49.816;7.964;2023-11-22T11:20:49;101309.78;;;7.87;56.36
29215;BME280;16252;49.816;7.964;2023-11-22T11:23:25;101232.69;;;7.43;56.05
29215;BME280;16252;49.816;7.964;2023-11-22T11:25:56;101271.38;;;7.72;55.38
29215;BME280;16252;49.816;7.964;2023-11-22T11:28:25;101290.69;;;7.77;55.62
29215;BME280;16252;49.816;7.964;2023-11-22T11:30:52;101288.28;;;7.71;56.11
29215;BME280;16252;49.816;7.964;2023-11-22T11:33:33;101284.75;;;7.71;53.85
29215;BME280;16252;49.816;7.964;2023-11-22T11:36:01;101294.38;;;7.75;55.33
29215;BME280;16252;49.816;7.964;2023-11-22T11:38:32;101319.44;;;7.90;55.01
29215;BME280;16252;49.816;7.964;2023-11-22T11:41:11;101303.56;;;7.68;54.85
29215;BME280;16252;49.816;7.964;2023-11-22T11:43:43;101276.59;;;7.55;55.37
29215;BME280;16252;49.816;7.964;2023-11-22T11:46:11;101310.41;;;7.73;56.08
29215;BME280;16252;49.816;7.964;2023-11-22T11:48:37;101280.81;;;7.59;55.52
29215;BME280;16252;49.816;7.964;2023-11-22T11:51:02;101277.09;;;7.63;55.38
29215;BME280;16252;49.816;7.964;2023-11-22T11:53:27;101283.50;;;7.59;55.85
29215;BME280;16252;49.816;7.964;2023-11-22T11:55:56;101323.19;;;7.86;55.13
29215;BME280;16252;49.816;7.964;2023-11-22T11:58:22;101206.41;;;7.15;56.13
29215;BME280;16252;49.816;7.964;2023-11-22T12:00:50;101318.03;;;8.01;55.49
29215;BME280;16252;49.816;7.964;2023-11-22T12:03:16;101253.78;;;7.68;56.22
29215;BME280;16252;49.816;7.964;2023-11-22T12:05:46;101274.13;;;7.90;55.55
29215;BME280;16252;49.816;7.964;2023-11-22T12:08:13;101281.72;;;7.99;55.14
29215;BME280;16252;49.816;7.964;2023-11-22T12:10:43;101295.56;;;8.07;55.81
29215;BME280;16252;49.816;7.964;2023-11-22T12:13:13;101276.25;;;8.02;55.91
29215;BME280;16252;49.816;7.964;2023-11-22T12:15:38;101281.66;;;8.00;55.47
29215;BME280;16252;49.816;7.964;2023-11-22T12:18:04;101292.44;;;8.18;54.86
29215;BME280;16252;49.816;7.964;2023-11-22T12:20:30;101284.66;;;8.13;55.07
29215;BME280;16252;49.816;7.964;2023-11-22T12:22:58;101250.69;;;7.98;55.08
29215;BME280;16252;49.816;7.964;2023-11-22T12:25:31;101297.41;;;8.25;53.96
29215;BME280;16252;49.816;7.964;2023-11-22T12:27:57;101271.53;;;8.09;55.00
29215;BME280;16252;49.816;7.964;2023-11-22T12:30:33;101286.09;;;8.20;53.91
29215;BME280;16252;49.816;7.964;2023-11-22T12:33:05;101283.78;;;8.13;54.15
29215;BME280;16252;49.816;7.964;2023-11-22T12:35:32;101261.41;;;7.96;54.81
29215;BME280;16252;49.816;7.964;2023-11-22T12:38:00;101273.59;;;8.02;54.83
29215;BME280;16252;49.816;7.964;2023-11-22T12:40:27;101279.78;;;8.02;55.04
29215;BME280;16252;49.816;7.964;2023-11-22T12:42:53;101282.69;;;7.98;55.85
29215;BME280;16252;49.816;7.964;2023-11-22T12:45:23;101277.84;;;8.06;55.43
29215;BME280;16252;49.816;7.964;2023-11-22T12:47:52;101275.25;;;8.04;54.54
29215;BME280;16252;49.816;7.964;2023-11-22T12:50:37;101243.75;;;7.94;54.28
29215;BME280;16252;49.816;7.964;2023-11-22T12:53:11;101254.00;;;8.03;54.54
29215;BME280;16252;49.816;7.964;2023-11-22T12:55:38;101281.59;;;8.02;54.61
29215;BME280;16252;49.816;7.964;2023-11-22T12:58:03;101276.53;;;7.96;54.94
29215;BME280;16252;49.816;7.964;2023-11-22T13:00:29;101293.69;;;8.09;54.70
29215;BME280;16252;49.816;7.964;2023-11-22T13:02:58;101282.69;;;7.98;54.33